Time;durP1;ratioP1;P1;durP2;ratioP2;P2;SDS_P1;SDS_P2;PMS_P1;PMS_P2;Temp;Humidity;BMP_temperature;BMP_pressure;BME280_temperature;BME280_humidity;BME280_pressure;Samples;Min_cycle;Max_cycle;Signal;HPM_P1;HPM_P2
2021/12/24 00:02:13;;;;;;;234.15;56.75;;;6.60;99.90;;;;;;4968523;28;20047;-73
2021/12/24 00:04:39;;;;;;;248.73;60.90;;;6.60;99.90;;;;;;4960708;28;20043;-73
2021/12/24 00:07:05;;;;;;;219.70;52.60;;;6.60;99.90;;;;;;4967425;28;22007;-73
2021/12/24 00:09:33;;;;;;;195.35;55.92;;;6.70;99.90;;;;;;4954233;28;20042;-73
2021/12/24 00:12:03;;;;;;;214.70;56.80;;;6.70;99.90;;;;;;4971898;28;20049;-73
2021/12/24 00:14:31;;;;;;;177.60;51.58;;;6.70;99.90;;;;;;4972223;28;20034;-73
2021/12/24 00:17:01;;;;;;;189.10;56.75;;;6.80;99.90;;;;;;4971578;28;20449;-73
2021/12/24 00:22:45;;;;;;;201.88;56.10;;;6.80;99.90;;;;;;4971483;28;20490;-73
2021/12/24 00:36:00;;;;;;;156.38;48.78;;;7.00;99.90;;;;;;4952375;28;20042;-74
2021/12/24 00:38:26;;;;;;;171.80;50.72;;;7.00;99.90;;;;;;4972213;28;20045;-73
2021/12/24 00:40:53;;;;;;;151.75;49.08;;;7.00;99.90;;;;;;4967503;28;20045;-73
2021/12/24 00:43:21;;;;;;;156.93;48.35;;;7.10;99.90;;;;;;5005612;23;20041;-74
2021/12/24 00:45:51;;;;;;;137.13;44.58;;;7.10;99.90;;;;;;5008501;28;20112;-74
2021/12/24 00:48:19;;;;;;;132.18;42.55;;;7.10;99.90;;;;;;5010281;28;20503;-74
2021/12/24 00:56:13;;;;;;;105.63;38.47;;;7.20;99.90;;;;;;4988085;28;20054;-74
2021/12/24 00:58:40;;;;;;;103.50;39.97;;;7.30;99.90;;;;;;4986114;28;20042;-74
2021/12/24 01:01:08;;;;;;;80.38;33.25;;;7.30;99.90;;;;;;4987078;28;20089;-74
2021/12/24 01:03:34;;;;;;;101.03;39.80;;;7.30;99.90;;;;;;5002003;28;20033;-74
2021/12/24 01:06:00;;;;;;;83.47;35.25;;;7.30;99.90;;;;;;5006118;28;20037;-74
2021/12/24 01:08:26;;;;;;;101.35;39.03;;;7.30;99.90;;;;;;4986048;28;20073;-74
2021/12/24 01:10:59;;;;;;;91.18;37.03;;;7.30;99.90;;;;;;4988479;28;20045;-74
2021/12/24 01:13:25;;;;;;;98.18;38.10;;;7.40;99.90;;;;;;4987693;28;20046;-74
2021/12/24 01:16:07;;;;;;;86.13;36.13;;;7.30;99.90;;;;;;5020372;28;20049;-74
2021/12/24 01:24:23;;;;;;;83.13;34.15;;;7.30;99.90;;;;;;4982487;28;20046;-74
2021/12/24 01:27:01;;;;;;;77.72;33.17;;;7.40;99.90;;;;;;4987351;28;20375;-74
2021/12/24 01:40:24;;;;;;;84.30;32.17;;;7.40;99.90;;;;;;5017987;28;20038;-74
2021/12/24 01:42:52;;;;;;;72.65;32.15;;;7.40;99.90;;;;;;4986315;28;20038;-74
2021/12/24 01:45:27;;;;;;;84.57;32.63;;;7.40;99.90;;;;;;5026510;28;20188;-74
2021/12/24 01:47:56;;;;;;;72.47;32.10;;;7.50;99.90;;;;;;4974820;28;20101;-73
2021/12/24 01:50:25;;;;;;;65.25;29.50;;;7.50;99.90;;;;;;4975477;28;20144;-73
2021/12/24 01:52:53;;;;;;;76.75;29.42;;;7.50;99.90;;;;;;4988318;28;20083;-73
2021/12/24 01:55:20;;;;;;;67.38;29.58;;;7.50;99.90;;;;;;4989701;28;20065;-73
2021/12/24 01:57:46;;;;;;;61.65;27.45;;;7.50;99.90;;;;;;4971071;28;20030;-73
2021/12/24 02:00:19;;;;;;;65.25;28.95;;;7.60;99.90;;;;;;4983651;28;20049;-73
2021/12/24 02:02:45;;;;;;;70.22;29.23;;;7.60;99.90;;;;;;4988438;28;20113;-73
2021/12/24 02:05:12;;;;;;;54.67;26.67;;;7.60;99.90;;;;;;4988246;28;20065;-73
2021/12/24 02:07:38;;;;;;;49.42;26.58;;;7.70;99.90;;;;;;4971399;28;20050;-73
2021/12/24 02:10:06;;;;;;;53.05;25.92;;;7.70;99.90;;;;;;5019878;28;20046;-73
2021/12/24 02:12:34;;;;;;;52.58;26.40;;;7.80;99.90;;;;;;4985875;28;20049;-73
2021/12/24 02:15:02;;;;;;;52.42;23.98;;;7.80;99.90;;;;;;5006947;28;20038;-74
2021/12/24 02:17:47;;;;;;;51.20;24.67;;;7.80;99.90;;;;;;4988314;28;20482;-74
2021/12/24 02:28:39;;;;;;;52.35;24.08;;;7.90;99.90;;;;;;5003551;28;20045;-73
2021/12/24 02:31:11;;;;;;;50.17;25.50;;;7.90;99.90;;;;;;5007951;28;20438;-73
2021/12/24 02:33:37;;;;;;;52.65;25.80;;;8.00;99.90;;;;;;4989148;28;20065;-74
2021/12/24 02:36:05;;;;;;;52.40;25.95;;;8.00;99.90;;;;;;5002756;28;20053;-73
2021/12/24 02:38:30;;;;;;;56.42;27.45;;;8.00;99.90;;;;;;5017550;28;20044;-73
2021/12/24 02:40:56;;;;;;;60.78;28.08;;;8.10;99.90;;;;;;5004248;28;20034;-73
2021/12/24 02:43:24;;;;;;;62.22;27.50;;;8.20;99.90;;;;;;4986833;28;20133;-73
2021/12/24 02:45:54;;;;;;;59.75;26.88;;;8.20;99.90;;;;;;4996215;28;20050;-73
2021/12/24 02:48:48;;;;;;;51.78;24.45;;;8.20;99.90;;;;;;4985299;28;20038;-73
2021/12/24 02:53:57;;;;;;;50.90;22.95;;;8.30;99.90;;;;;;5019082;28;20053;-73
2021/12/24 02:56:25;;;;;;;50.97;23.42;;;8.40;99.90;;;;;;4984879;28;20060;-74
2021/12/24 02:58:52;;;;;;;54.17;23.55;;;8.40;99.90;;;;;;4988324;28;20046;-73
2021/12/24 03:01:22;;;;;;;46.90;23.27;;;8.40;99.90;;;;;;4986033;28;20041;-74
2021/12/24 03:03:48;;;;;;;46.47;21.77;;;8.50;99.90;;;;;;5002515;28;20156;-73
2021/12/24 03:06:24;;;;;;;45.22;21.42;;;8.50;99.90;;;;;;4987330;28;20052;-73
2021/12/24 03:08:50;;;;;;;46.90;21.17;;;8.50;99.90;;;;;;4988966;28;20513;-73
2021/12/24 03:11:16;;;;;;;43.75;21.77;;;8.50;99.90;;;;;;4970472;28;20155;-73
2021/12/24 03:13:43;;;;;;;44.83;21.02;;;8.50;99.90;;;;;;5019326;28;20593;-73
2021/12/24 03:16:08;;;;;;;45.85;20.45;;;8.50;99.90;;;;;;5017907;28;20120;-73
2021/12/24 03:18:37;;;;;;;49.25;21.33;;;8.50;99.90;;;;;;5014697;28;20188;-73
2021/12/24 03:21:08;;;;;;;49.47;22.38;;;8.50;99.90;;;;;;4983568;28;20095;-73
2021/12/24 03:26:06;;;;;;;52.00;21.90;;;8.50;99.90;;;;;;5002739;28;20049;-74
2021/12/24 03:28:32;;;;;;;49.20;20.83;;;8.50;99.90;;;;;;5017342;28;20053;-74
2021/12/24 03:30:59;;;;;;;44.90;20.30;;;8.50;99.90;;;;;;4989454;28;20057;-74
2021/12/24 03:33:25;;;;;;;49.58;21.15;;;8.60;99.90;;;;;;4988592;28;20038;-74
2021/12/24 03:35:51;;;;;;;43.22;18.20;;;8.50;99.90;;;;;;5003940;28;20041;-74
2021/12/24 03:38:17;;;;;;;42.60;19.70;;;8.50;99.90;;;;;;5005031;28;20053;-74
2021/12/24 03:40:43;;;;;;;33.60;16.52;;;8.60;99.90;;;;;;5007304;28;20087;-74
2021/12/24 03:43:09;;;;;;;35.67;16.38;;;8.50;99.90;;;;;;4984753;28;20100;-74
2021/12/24 03:57:02;;;;;;;49.33;22.20;;;8.70;99.90;;;;;;5005130;28;20445;-74
2021/12/24 03:59:28;;;;;;;51.75;24.60;;;8.80;99.90;;;;;;4992615;28;21824;-74
2021/12/24 04:01:54;;;;;;;55.45;26.27;;;8.70;99.90;;;;;;4957176;28;20038;-74
2021/12/24 04:04:20;;;;;;;58.72;27.08;;;8.80;99.90;;;;;;4992907;28;20034;-74
2021/12/24 04:06:51;;;;;;;62.97;28.88;;;8.80;99.90;;;;;;4977424;28;20050;-74
2021/12/24 04:09:19;;;;;;;64.10;29.40;;;8.90;99.90;;;;;;4975961;28;20069;-74
2021/12/24 04:11:46;;;;;;;72.75;31.80;;;8.90;99.90;;;;;;4973282;28;20498;-74
2021/12/24 04:14:21;;;;;;;79.28;32.20;;;8.80;99.90;;;;;;4987801;28;20043;-74
2021/12/24 04:16:50;;;;;;;84.53;33.38;;;8.90;99.90;;;;;;4992203;28;20050;-74
2021/12/24 04:24:56;;;;;;;68.38;29.10;;;8.90;99.90;;;;;;5006424;28;20048;-74
2021/12/24 04:27:27;;;;;;;67.25;28.33;;;8.90;99.90;;;;;;5006731;28;20489;-74
2021/12/24 04:30:03;;;;;;;67.65;30.98;;;8.90;99.90;;;;;;4990993;28;20033;-74
2021/12/24 04:33:10;;;;;;;70.20;30.98;;;8.90;99.90;;;;;;4961094;28;20429;-74
2021/12/24 04:51:32;;;;;;;70.18;29.10;;;8.90;99.90;;;;;;4986792;28;20046;-73
2021/12/24 05:04:51;;;;;;;74.45;31.25;;;8.90;99.90;;;;;;4986375;28;20046;-73
2021/12/24 05:09:52;;;;;;;79.28;32.40;;;8.80;99.90;;;;;;4987392;28;20054;-74
2021/12/24 05:12:17;;;;;;;85.70;31.92;;;8.80;99.90;;;;;;4967873;28;20046;-74
2021/12/24 05:14:43;;;;;;;79.15;31.45;;;8.80;99.90;;;;;;4972758;28;20409;-73
2021/12/24 05:17:28;;;;;;;74.38;30.13;;;8.80;99.90;;;;;;4988174;28;20034;-74
2021/12/24 05:22:38;;;;;;;77.30;31.08;;;8.80;99.90;;;;;;5021412;28;20046;-73
2021/12/24 05:25:04;;;;;;;69.07;28.88;;;8.80;99.90;;;;;;5021939;28;20497;-73
2021/12/24 05:27:30;;;;;;;72.47;31.60;;;8.80;99.90;;;;;;4985538;28;20049;-74
2021/12/24 05:29:55;;;;;;;66.97;29.35;;;8.80;99.90;;;;;;4985745;28;20045;-74
2021/12/24 05:32:22;;;;;;;64.65;28.90;;;8.80;99.90;;;;;;5015309;28;20035;-73
2021/12/24 05:34:48;;;;;;;72.80;30.88;;;8.90;99.90;;;;;;5017129;28;20180;-73
2021/12/24 05:37:13;;;;;;;80.43;32.42;;;8.80;99.90;;;;;;5016544;28;20053;-75
2021/12/24 05:39:39;;;;;;;68.15;30.27;;;8.80;99.90;;;;;;4986818;28;20046;-75
2021/12/24 05:42:05;;;;;;;66.07;30.17;;;8.90;99.90;;;;;;4971003;28;20041;-75
2021/12/24 05:44:32;;;;;;;69.72;30.80;;;8.90;99.90;;;;;;5017364;28;20410;-75
2021/12/24 05:47:00;;;;;;;62.47;29.42;;;8.90;99.90;;;;;;4985004;28;20049;-74
2021/12/24 05:49:25;;;;;;;72.07;27.95;;;8.90;99.90;;;;;;4972559;28;20132;-75
2021/12/24 05:51:51;;;;;;;57.97;28.23;;;8.90;99.90;;;;;;4985439;28;20133;-74
2021/12/24 05:54:17;;;;;;;61.42;27.05;;;8.90;99.90;;;;;;5004559;28;20116;-74
2021/12/24 05:56:44;;;;;;;50.92;24.60;;;8.90;99.90;;;;;;4986516;28;20045;-74
2021/12/24 05:59:10;;;;;;;52.88;24.65;;;8.90;99.90;;;;;;4999733;28;20065;-75
2021/12/24 06:01:36;;;;;;;53.63;24.98;;;8.90;99.90;;;;;;5018793;28;20030;-74
2021/12/24 06:04:02;;;;;;;46.78;22.55;;;8.90;99.90;;;;;;4988374;28;20153;-75
2021/12/24 06:06:28;;;;;;;47.35;23.05;;;9.00;99.90;;;;;;4987441;28;20046;-75
2021/12/24 06:08:54;;;;;;;54.40;23.20;;;8.90;99.90;;;;;;5000422;28;20176;-75
2021/12/24 06:11:20;;;;;;;46.65;20.52;;;8.90;99.90;;;;;;4984972;28;20069;-75
2021/12/24 06:13:51;;;;;;;46.40;21.65;;;8.90;99.90;;;;;;4986696;28;20042;-75
2021/12/24 06:16:17;;;;;;;45.50;19.83;;;8.90;99.90;;;;;;5003764;28;20125;-74
2021/12/24 06:18:43;;;;;;;47.17;21.55;;;8.90;99.90;;;;;;4983114;28;20041;-74
2021/12/24 06:21:10;;;;;;;45.70;20.58;;;9.00;99.90;;;;;;4988312;28;20429;-75
2021/12/24 06:23:40;;;;;;;46.58;19.45;;;9.00;99.90;;;;;;4987086;28;20054;-74
2021/12/24 06:26:07;;;;;;;44.33;19.83;;;8.90;99.90;;;;;;4986384;28;20366;-75
2021/12/24 06:28:33;;;;;;;48.22;20.00;;;8.90;99.90;;;;;;4986194;28;20038;-75
2021/12/24 06:30:59;;;;;;;40.90;19.42;;;8.90;99.90;;;;;;4987298;28;20080;-74
2021/12/24 06:33:25;;;;;;;46.22;19.88;;;8.90;99.90;;;;;;4986144;28;20057;-74
2021/12/24 06:35:56;;;;;;;44.53;19.70;;;8.90;99.90;;;;;;5016964;28;20429;-74
2021/12/24 06:38:24;;;;;;;44.30;19.35;;;8.90;99.90;;;;;;4972577;28;20046;-74
2021/12/24 06:40:58;;;;;;;41.65;19.15;;;8.90;99.90;;;;;;5016211;28;20050;-73
2021/12/24 06:43:49;;;;;;;40.88;17.15;;;8.80;99.90;;;;;;5038558;22;20129;-74
2021/12/24 06:46:51;;;;;;;;;;;8.80;99.90;;;;;;4982099;28;20057;-74
2021/12/24 06:49:43;;;;;;;34.63;15.48;;;8.90;99.90;;;;;;4965939;28;20294;-74
2021/12/24 06:52:31;;;;;;;41.35;15.90;;;8.80;99.90;;;;;;4966004;28;20041;-74
2021/12/24 06:55:11;;;;;;;31.58;13.93;;;8.80;99.90;;;;;;4966821;28;20035;-74
2021/12/24 06:58:21;;;;;;;31.00;13.50;;;8.80;99.90;;;;;;4950779;28;20038;-74
2021/12/24 07:01:26;;;;;;;31.60;13.48;;;8.90;99.90;;;;;;4950196;28;20038;-74
2021/12/24 07:04:52;;;;;;;32.95;12.65;;;8.90;99.90;;;;;;4967585;28;20062;-74
2021/12/24 07:07:51;;;;;;;36.47;12.38;;;8.90;99.90;;;;;;4934972;28;20038;-74
2021/12/24 07:10:44;;;;;;;33.60;12.50;;;8.90;99.90;;;;;;4969124;28;20037;-74
2021/12/24 07:14:24;;;;;;;37.83;12.73;;;8.90;99.90;;;;;;4966848;28;20043;-74
2021/12/24 07:21:41;;;;;;;31.30;11.63;;;8.90;99.90;;;;;;4962766;28;20058;-73
2021/12/24 07:25:06;;;;;;;28.75;12.73;;;8.80;99.90;;;;;;4953577;28;20046;-73
2021/12/24 07:27:36;;;;;;;38.03;12.35;;;8.80;99.90;;;;;;4935305;28;20468;-73
2021/12/24 07:30:04;;;;;;;30.17;11.90;;;8.80;99.90;;;;;;4970373;28;20419;-73
2021/12/24 07:32:30;;;;;;;28.15;11.10;;;8.80;99.90;;;;;;4970481;28;20096;-73
2021/12/24 07:34:56;;;;;;;32.15;12.02;;;8.80;99.90;;;;;;4968301;28;20668;-74
2021/12/24 07:37:21;;;;;;;31.92;10.75;;;8.70;99.90;;;;;;4970495;28;20042;-74
2021/12/24 07:39:47;;;;;;;34.22;11.27;;;8.70;99.90;;;;;;4966995;28;20046;-74
2021/12/24 07:42:13;;;;;;;36.35;11.57;;;8.70;99.90;;;;;;4965543;28;20045;-74
2021/12/24 07:44:41;;;;;;;35.75;10.85;;;8.70;99.90;;;;;;5010402;23;20564;-74
2021/12/24 07:47:15;;;;;;;32.05;10.88;;;8.70;99.90;;;;;;4995694;28;20124;-74
2021/12/24 07:49:42;;;;;;;32.67;10.93;;;8.70;99.90;;;;;;4986880;28;20431;-75
2021/12/24 07:52:08;;;;;;;29.75;10.85;;;8.60;99.90;;;;;;4993568;28;20439;-75
2021/12/24 07:54:55;;;;;;;25.00;9.38;;;8.60;99.90;;;;;;4989367;28;20404;-75
2021/12/24 07:57:22;;;;;;;31.17;9.40;;;8.60;99.90;;;;;;4991122;28;20548;-76
2021/12/24 07:59:48;;;;;;;26.20;9.32;;;8.60;99.90;;;;;;4987545;28;20429;-74
2021/12/24 08:02:17;;;;;;;24.02;8.25;;;8.60;99.90;;;;;;5019954;28;20413;-74
2021/12/24 08:04:46;;;;;;;24.80;8.50;;;8.60;99.90;;;;;;5006874;23;20383;-75
2021/12/24 08:07:14;;;;;;;26.25;8.60;;;8.60;99.90;;;;;;5009923;28;20448;-75
2021/12/24 08:09:40;;;;;;;28.40;8.82;;;8.60;99.90;;;;;;5007804;28;20039;-75
2021/12/24 08:12:08;;;;;;;29.00;9.25;;;8.60;99.90;;;;;;5008016;28;20033;-76
2021/12/24 08:14:34;;;;;;;24.38;8.23;;;8.60;99.90;;;;;;5007494;28;20521;-76
2021/12/24 08:16:59;;;;;;;28.30;10.10;;;8.70;99.90;;;;;;5010212;28;20132;-74
2021/12/24 08:19:25;;;;;;;34.25;9.93;;;8.60;99.90;;;;;;5008263;28;20072;-74
2021/12/24 08:21:51;;;;;;;42.80;10.52;;;8.60;99.90;;;;;;5009209;28;20033;-75
2021/12/24 08:24:17;;;;;;;25.85;9.38;;;8.60;99.90;;;;;;5010888;28;20041;-76
2021/12/24 08:26:44;;;;;;;41.33;11.82;;;8.60;99.90;;;;;;5024338;28;20044;-75
2021/12/24 08:29:09;;;;;;;36.10;10.93;;;8.60;99.90;;;;;;5011458;28;20417;-74
2021/12/24 08:31:36;;;;;;;33.35;12.15;;;8.60;99.90;;;;;;5011571;28;20045;-76
2021/12/24 08:34:04;;;;;;;40.45;11.70;;;8.50;99.90;;;;;;5010273;28;20041;-75
2021/12/24 08:36:30;;;;;;;37.67;11.77;;;8.60;99.90;;;;;;5009925;28;20389;-75
2021/12/24 08:38:56;;;;;;;38.75;12.43;;;8.60;99.90;;;;;;5010037;28;20137;-76
2021/12/24 08:41:25;;;;;;;37.95;12.65;;;8.60;99.90;;;;;;5011800;28;20132;-74
2021/12/24 08:43:51;;;;;;;42.13;12.18;;;8.60;99.90;;;;;;5009235;28;20458;-74
2021/12/24 08:46:17;;;;;;;31.30;10.73;;;8.60;99.90;;;;;;5008905;28;20373;-75
2021/12/24 08:48:43;;;;;;;44.05;11.95;;;8.70;99.90;;;;;;5009115;28;20052;-76
2021/12/24 08:51:09;;;;;;;33.83;10.20;;;8.70;99.90;;;;;;5008926;28;20037;-76
2021/12/24 08:56:08;;;;;;;25.23;9.27;;;8.60;99.90;;;;;;5003963;28;20057;-74
2021/12/24 08:58:34;;;;;;;38.85;10.38;;;8.70;99.90;;;;;;5002124;28;20108;-74
2021/12/24 09:01:00;;;;;;;27.05;8.60;;;8.70;99.90;;;;;;4985294;28;20038;-75
2021/12/24 09:03:26;;;;;;;36.75;8.93;;;8.70;99.90;;;;;;4988687;28;20042;-75
2021/12/24 09:05:51;;;;;;;34.33;9.10;;;8.60;99.90;;;;;;4988261;28;20913;-74
2021/12/24 09:08:17;;;;;;;34.85;9.68;;;8.60;99.90;;;;;;4985857;28;20207;-75
2021/12/24 09:10:43;;;;;;;34.63;10.77;;;8.70;99.90;;;;;;4987879;28;20053;-73
2021/12/24 09:13:09;;;;;;;42.42;11.63;;;8.60;99.90;;;;;;4970171;28;20041;-74
2021/12/24 09:15:34;;;;;;;36.13;10.73;;;8.60;99.90;;;;;;4987367;28;20461;-74
2021/12/24 09:18:02;;;;;;;39.63;12.13;;;8.50;99.90;;;;;;4994560;28;20037;-74
2021/12/24 09:20:35;;;;;;;44.35;11.80;;;8.50;99.90;;;;;;4979864;28;20074;-74
2021/12/24 09:23:02;;;;;;;48.13;12.95;;;8.50;99.90;;;;;;4989181;28;20026;-74
2021/12/24 09:25:29;;;;;;;39.22;12.32;;;8.40;99.90;;;;;;4984368;28;20310;-74
2021/12/24 09:27:56;;;;;;;37.22;11.00;;;8.40;99.90;;;;;;4986266;28;20039;-74
2021/12/24 09:30:22;;;;;;;41.75;10.95;;;8.50;99.90;;;;;;4986398;28;20125;-74
2021/12/24 09:32:48;;;;;;;40.30;10.88;;;8.50;99.90;;;;;;4986691;28;20072;-74
2021/12/24 09:35:14;;;;;;;42.63;10.63;;;8.50;99.90;;;;;;4985509;28;20633;-74
2021/12/24 09:37:41;;;;;;;37.47;9.65;;;8.40;99.90;;;;;;4987087;28;20046;-74
2021/12/24 09:40:10;;;;;;;47.33;10.98;;;8.50;99.90;;;;;;4988241;28;20068;-74
2021/12/24 09:42:37;;;;;;;43.38;11.20;;;8.50;99.90;;;;;;4972450;28;20073;-75
2021/12/24 09:45:04;;;;;;;37.83;9.80;;;8.50;99.90;;;;;;4987189;28;20486;-74
2021/12/24 09:47:30;;;;;;;49.45;11.68;;;8.50;99.90;;;;;;4983117;28;20034;-74
2021/12/24 09:49:56;;;;;;;41.05;10.18;;;8.60;99.90;;;;;;4984329;28;20044;-74
2021/12/24 09:52:23;;;;;;;27.65;8.80;;;8.60;99.90;;;;;;4970654;28;20054;-74
2021/12/24 09:54:49;;;;;;;36.45;9.23;;;8.60;99.90;;;;;;4988218;28;20054;-74
2021/12/24 09:57:15;;;;;;;30.52;8.55;;;8.70;99.90;;;;;;4984824;28;20042;-75
2021/12/24 09:59:41;;;;;;;29.17;8.02;;;8.70;99.90;;;;;;4988203;28;20121;-74
2021/12/24 10:02:08;;;;;;;33.20;8.20;;;8.70;99.90;;;;;;4985447;28;20562;-74
2021/12/24 10:04:35;;;;;;;35.38;8.57;;;8.70;99.90;;;;;;4984256;28;20042;-74
2021/12/24 10:07:03;;;;;;;37.25;8.98;;;8.70;99.90;;;;;;4982107;28;20053;-74
2021/12/24 10:09:49;;;;;;;28.38;8.75;;;8.70;99.90;;;;;;4983178;28;20038;-73
2021/12/24 10:12:15;;;;;;;28.60;8.15;;;8.70;99.90;;;;;;4985351;28;20034;-73
2021/12/24 10:14:48;;;;;;;37.90;9.68;;;8.80;99.90;;;;;;4971875;28;20048;-74
2021/12/24 10:17:20;;;;;;;34.90;8.68;;;8.70;99.90;;;;;;4985198;28;20061;-74
2021/12/24 10:19:56;;;;;;;35.17;9.13;;;8.80;99.90;;;;;;5001533;28;20069;-74
2021/12/24 10:22:22;;;;;;;39.67;9.25;;;8.80;99.90;;;;;;4985076;28;20046;-75
2021/12/24 10:25:07;;;;;;;37.60;9.30;;;8.80;99.90;;;;;;4986760;28;20041;-75
2021/12/24 10:27:34;;;;;;;41.28;9.07;;;8.70;99.90;;;;;;4984381;28;20030;-74
2021/12/24 10:30:15;;;;;;;32.85;9.30;;;8.80;99.90;;;;;;4988612;28;20046;-74
2021/12/24 10:32:41;;;;;;;37.97;9.68;;;8.80;99.90;;;;;;4985108;28;20053;-74
2021/12/24 10:35:25;;;;;;;27.63;8.35;;;8.80;99.90;;;;;;4988266;28;20050;-74
2021/12/24 10:38:20;;;;;;;39.85;9.10;;;8.80;99.90;;;;;;5006272;28;20069;-76
2021/12/24 10:40:55;;;;;;;31.65;9.35;;;8.80;99.90;;;;;;4988800;28;20049;-74
2021/12/24 10:43:36;;;;;;;32.42;8.82;;;8.80;99.90;;;;;;4989831;28;20073;-73
2021/12/24 10:46:10;;;;;;;41.08;9.88;;;8.70;99.90;;;;;;5004909;28;20041;-74
2021/12/24 10:48:38;;;;;;;35.28;9.68;;;8.80;99.90;;;;;;4987690;28;20038;-75
2021/12/24 10:51:07;;;;;;;25.23;9.15;;;8.70;99.90;;;;;;4988161;28;20038;-75
2021/12/24 10:54:19;;;;;;;26.25;9.80;;;8.70;99.90;;;;;;4960239;28;20038;-75
2021/12/24 10:56:44;;;;;;;29.95;9.40;;;8.80;99.90;;;;;;4986273;28;20049;-74
2021/12/24 10:59:10;;;;;;;31.23;9.77;;;8.80;99.90;;;;;;4990618;28;20087;-74
2021/12/24 11:01:36;;;;;;;35.28;9.25;;;8.80;99.90;;;;;;4974828;28;20045;-74
2021/12/24 11:04:01;;;;;;;36.22;10.43;;;8.80;99.90;;;;;;4990575;28;20501;-75
2021/12/24 11:06:31;;;;;;;27.73;9.10;;;8.80;99.90;;;;;;5008075;28;20046;-75
2021/12/24 11:09:00;;;;;;;26.55;8.50;;;8.80;99.90;;;;;;4990016;28;20080;-76
2021/12/24 11:11:35;;;;;;;30.30;9.48;;;8.80;99.90;;;;;;4989109;28;20065;-75
2021/12/24 11:14:01;;;;;;;26.00;9.43;;;8.80;99.90;;;;;;4991160;28;20034;-75
2021/12/24 11:16:27;;;;;;;27.85;9.05;;;8.80;99.90;;;;;;4990894;28;20116;-76
2021/12/24 11:19:00;;;;;;;33.60;8.55;;;8.80;99.90;;;;;;4990813;28;20133;-76
2021/12/24 11:21:27;;;;;;;;;;;8.80;99.90;;;;;;4974669;28;20125;-75
2021/12/24 11:23:53;;;;;;;26.35;8.07;;;8.80;99.90;;;;;;5003897;28;19917;-75
2021/12/24 11:26:22;;;;;;;28.95;7.95;;;8.80;99.90;;;;;;4994400;28;20049;-75
2021/12/24 11:28:48;;;;;;;22.23;6.90;;;8.90;99.90;;;;;;4991084;28;20037;-75
2021/12/24 11:31:25;;;;;;;20.65;6.18;;;8.90;99.90;;;;;;4989526;28;20038;-74
2021/12/24 11:33:52;;;;;;;24.90;5.88;;;8.90;99.90;;;;;;5005416;28;20052;-74
2021/12/24 11:36:20;;;;;;;18.05;5.43;;;8.80;99.90;;;;;;4990045;28;20046;-75
2021/12/24 11:38:55;;;;;;;19.15;4.93;;;8.80;99.90;;;;;;5007971;28;20136;-75
2021/12/24 11:41:25;;;;;;;15.30;4.75;;;8.70;99.90;;;;;;4988509;28;20042;-74
2021/12/24 11:43:52;;;;;;;18.27;4.32;;;8.80;99.90;;;;;;4974744;28;20043;-75
2021/12/24 11:46:20;;;;;;;10.23;3.38;;;8.80;99.90;;;;;;4989645;28;20046;-75
2021/12/24 11:48:48;;;;;;;7.35;3.00;;;8.80;99.90;;;;;;4988920;28;20033;-74
2021/12/24 11:51:17;;;;;;;13.20;8.13;;;8.70;99.90;;;;;;4974941;28;20037;-74
2021/12/24 11:53:44;;;;;;;6.38;4.72;;;8.70;99.90;;;;;;4985923;28;20054;-73
2021/12/24 11:56:13;;;;;;;1.42;1.23;;;8.50;99.90;;;;;;4989784;28;20042;-73
2021/12/24 11:58:54;;;;;;;7.82;6.68;;;8.30;99.90;;;;;;4989605;28;20037;-73
2021/12/24 12:01:30;;;;;;;1.40;1.30;;;8.20;99.90;;;;;;4988884;28;20049;-73
2021/12/24 12:03:58;;;;;;;11.85;10.65;;;8.10;99.90;;;;;;5005573;28;20091;-73
2021/12/24 12:06:23;;;;;;;3.70;3.40;;;8.00;99.90;;;;;;4987768;28;20045;-73
2021/12/24 12:09:00;;;;;;;2.10;2.00;;;7.90;99.90;;;;;;4989576;28;20025;-73
2021/12/24 12:11:28;;;;;;;6.47;5.88;;;7.80;99.90;;;;;;4989313;28;20046;-75
2021/12/24 12:13:59;;;;;;;12.30;11.13;;;7.70;99.90;;;;;;5001645;23;20138;-74
2021/12/24 12:16:53;;;;;;;4.45;4.03;;;7.70;99.90;;;;;;4954702;28;20464;-74
2021/12/24 12:22:30;;;;;;;4.22;3.28;;;7.70;99.90;;;;;;4954046;28;20401;-74
2021/12/24 12:25:07;;;;;;;2.83;2.63;;;7.70;99.90;;;;;;4972110;28;20096;-74
2021/12/24 12:27:57;;;;;;;12.18;9.05;;;7.70;99.90;;;;;;4984596;28;20049;-74
2021/12/24 12:31:03;;;;;;;8.07;6.18;;;7.70;99.90;;;;;;4970870;28;20047;-74
2021/12/24 12:34:02;;;;;;;3.05;2.28;;;7.60;99.90;;;;;;4946040;28;20057;-74
2021/12/24 12:36:39;;;;;;;1.98;1.77;;;7.60;99.90;;;;;;4967127;28;20039;-74
2021/12/24 12:39:26;;;;;;;3.80;3.50;;;7.60;99.90;;;;;;4987965;28;20042;-74
2021/12/24 12:41:52;;;;;;;3.60;3.28;;;7.60;99.90;;;;;;4969442;28;20065;-74
2021/12/24 12:44:19;;;;;;;2.00;1.90;;;7.80;99.90;;;;;;4971272;28;20120;-73
2021/12/24 12:46:47;;;;;;;1.85;1.75;;;7.80;99.90;;;;;;4955457;28;20134;-74
2021/12/24 12:49:16;;;;;;;3.38;2.42;;;7.70;99.90;;;;;;4967540;28;20438;-74
2021/12/24 12:51:54;;;;;;;3.47;2.42;;;7.70;99.90;;;;;;4965660;28;20045;-73
2021/12/24 12:54:56;;;;;;;3.15;2.85;;;7.70;99.90;;;;;;4970716;28;20450;-73
2021/12/24 12:57:27;;;;;;;2.15;2.05;;;7.70;99.90;;;;;;4969219;28;20043;-73
2021/12/24 13:00:08;;;;;;;3.00;2.72;;;7.60;99.90;;;;;;4969583;28;20042;-72
2021/12/24 13:02:56;;;;;;;2.40;2.20;;;7.60;99.90;;;;;;4971132;28;20045;-72
2021/12/24 13:05:27;;;;;;;1.90;1.80;;;7.60;99.90;;;;;;4970075;28;20061;-72
2021/12/24 13:07:55;;;;;;;1.80;1.70;;;7.60;99.90;;;;;;4971056;28;20030;-73
2021/12/24 13:10:20;;;;;;;1.90;1.80;;;7.60;99.90;;;;;;4973087;28;20364;-72
2021/12/24 13:12:46;;;;;;;1.80;1.70;;;7.50;99.90;;;;;;4970754;28;20042;-72
2021/12/24 13:15:16;;;;;;;2.90;2.70;;;7.60;99.90;;;;;;4970617;28;20446;-73
2021/12/24 13:17:46;;;;;;;1.80;1.70;;;7.50;99.90;;;;;;4970546;28;20038;-73
2021/12/24 13:20:20;;;;;;;9.82;9.00;;;7.50;99.90;;;;;;4972166;28;20034;-78
2021/12/24 13:22:46;;;;;;;2.53;2.35;;;7.40;99.90;;;;;;4969910;28;20031;-73
2021/12/24 13:25:14;;;;;;;13.20;12.02;;;7.40;99.90;;;;;;4959401;28;20461;-73
2021/12/24 13:27:47;;;;;;;3.50;3.00;;;7.40;99.90;;;;;;4966987;28;20045;-73
2021/12/24 13:30:19;;;;;;;3.28;2.35;;;7.40;99.90;;;;;;4969388;28;20054;-73
2021/12/24 13:32:48;;;;;;;2.10;1.90;;;7.40;99.90;;;;;;4970575;28;20121;-73
2021/12/24 13:38:48;;;;;;;;;;;;;;;;;;;;;
2021/12/24 13:50:31;;;;;;;2.85;2.10;;;7.30;99.90;;;;;;4896106;28;20129;-74
2021/12/24 13:55:45;;;;;;;10.23;9.32;;;7.20;99.90;;;;;;4977539;28;20046;-74
2021/12/24 13:58:13;;;;;;;4.80;4.35;;;7.20;99.90;;;;;;4974495;28;20029;-74
2021/12/24 14:00:47;;;;;;;3.60;3.30;;;7.30;99.90;;;;;;4985713;28;20033;-74
2021/12/24 14:03:13;;;;;;;5.28;4.82;;;7.30;99.90;;;;;;4982914;28;20038;-74
2021/12/24 14:06:10;;;;;;;3.63;3.33;;;7.20;99.90;;;;;;5018105;23;20065;-74
2021/12/24 14:09:54;;;;;;;20.52;18.35;;;7.20;99.90;;;;;;5008548;28;20045;-74
2021/12/24 14:15:51;;;;;;;15.98;14.32;;;7.20;99.90;;;;;;5513341;23;20041;-74
2021/12/24 14:21:45;;;;;;;4.68;4.28;;;7.20;99.90;;;;;;4993286;28;20050;-74
2021/12/24 14:24:12;;;;;;;3.47;2.20;;;7.20;99.90;;;;;;4979610;28;20034;-74
2021/12/24 14:26:41;;;;;;;2.55;2.35;;;7.10;99.90;;;;;;4968315;28;20783;-74
2021/12/24 14:29:07;;;;;;;2.83;2.63;;;7.10;99.90;;;;;;4954940;28;20054;-74
2021/12/24 14:32:03;;;;;;;2.58;2.35;;;7.10;99.90;;;;;;4969844;28;20104;-73
2021/12/24 14:34:47;;;;;;;2.80;2.10;;;7.10;99.90;;;;;;4965122;28;20046;-73
2021/12/24 14:37:18;;;;;;;2.58;1.88;;;7.10;99.90;;;;;;4967968;28;20090;-73
2021/12/24 14:39:48;;;;;;;1.98;1.88;;;7.10;99.90;;;;;;4970071;28;20050;-73
2021/12/24 14:42:47;;;;;;;1.98;1.88;;;7.10;99.90;;;;;;4951751;28;20052;-74
2021/12/24 14:45:25;;;;;;;2.30;2.10;;;7.10;99.90;;;;;;4951795;28;20487;-73
2021/12/24 14:48:12;;;;;;;2.45;2.10;;;7.10;99.90;;;;;;4952670;28;20039;-73
2021/12/24 14:50:50;;;;;;;2.25;2.05;;;7.10;99.90;;;;;;4968542;28;20096;-74
2021/12/24 14:53:36;;;;;;;3.30;2.13;;;7.10;99.90;;;;;;4951617;28;20034;-74
2021/12/24 14:56:05;;;;;;;2.25;2.05;;;7.00;99.90;;;;;;4951686;28;20046;-73
2021/12/24 14:58:42;;;;;;;32.90;25.30;;;7.00;99.90;;;;;;4965400;28;20065;-74
2021/12/24 15:01:20;;;;;;;2.85;2.50;;;7.00;99.90;;;;;;4969736;28;20125;-75
2021/12/24 15:03:52;;;;;;;2.30;2.10;;;6.90;99.90;;;;;;4942995;28;20172;-74
2021/12/24 15:06:31;;;;;;;2.55;2.35;;;6.90;99.90;;;;;;4959239;28;20042;-74
2021/12/24 15:09:16;;;;;;;2.63;2.42;;;6.90;99.90;;;;;;4967853;28;20165;-74
2021/12/24 15:11:42;;;;;;;5.22;3.47;;;6.80;99.90;;;;;;4968396;28;20042;-74
2021/12/24 15:14:12;;;;;;;8.32;2.50;;;6.80;99.90;;;;;;4949952;28;20039;-74
2021/12/24 15:16:48;;;;;;;2.67;2.47;;;6.80;99.90;;;;;;4970099;28;20057;-74
2021/12/24 15:19:16;;;;;;;4.10;2.67;;;6.70;99.90;;;;;;4977332;28;20038;-74